Time;durP1;ratioP1;P1;durP2;ratioP2;P2;SDS_P1;SDS_P2;PMS_P1;PMS_P2;Temp;Humidity;BMP_temperature;BMP_pressure;BME280_temperature;BME280_humidity;BME280_pressure;Samples;Min_cycle;Max_cycle;Signal;HPM_P1;HPM_P2
2023/12/12 00:02:17;;;;;;;10.63;5.15;;;4.30;99.90;;;;;;5092162;28;20513;-45
2023/12/12 00:04:43;;;;;;;11.60;5.03;;;4.20;99.90;;;;;;5089656;28;20048;-46
2023/12/12 00:07:09;;;;;;;12.15;5.25;;;4.30;99.90;;;;;;5074781;28;20541;-44
2023/12/12 00:09:34;;;;;;;14.35;5.82;;;4.20;99.90;;;;;;5092337;28;20044;-44
2023/12/12 00:12:00;;;;;;;14.40;5.43;;;4.20;99.90;;;;;;5092248;28;20176;-45
2023/12/12 00:14:25;;;;;;;14.73;5.28;;;4.20;99.90;;;;;;5092392;28;20077;-44
2023/12/12 00:16:51;;;;;;;16.95;5.75;;;4.20;99.90;;;;;;5092508;28;20086;-44
2023/12/12 00:19:17;;;;;;;14.93;5.75;;;4.20;99.90;;;;;;5092197;28;20040;-43
2023/12/12 00:21:42;;;;;;;17.40;5.72;;;4.20;99.90;;;;;;5088958;28;20623;-44
2023/12/12 00:24:08;;;;;;;17.33;5.90;;;4.20;99.90;;;;;;5072381;28;20121;-47
2023/12/12 00:26:34;;;;;;;15.43;5.80;;;4.20;99.90;;;;;;5086361;28;20123;-46
2023/12/12 00:29:00;;;;;;;14.57;6.20;;;4.10;99.90;;;;;;5090489;28;20119;-45
2023/12/12 00:31:25;;;;;;;13.75;6.30;;;4.10;99.90;;;;;;5090490;28;20356;-45
2023/12/12 00:33:51;;;;;;;14.80;6.88;;;4.20;99.90;;;;;;5091064;28;20071;-46
2023/12/12 00:36:16;;;;;;;19.52;6.88;;;4.10;99.90;;;;;;5091118;28;20036;-45
2023/12/12 00:38:43;;;;;;;15.20;6.97;;;4.30;99.90;;;;;;5088692;28;20504;-44
2023/12/12 00:41:09;;;;;;;22.45;7.40;;;4.20;99.90;;;;;;5082853;28;20075;-46
2023/12/12 00:43:34;;;;;;;18.73;6.82;;;4.40;99.90;;;;;;5069686;28;20143;-44
2023/12/12 00:46:00;;;;;;;19.05;7.43;;;4.30;99.90;;;;;;5086776;28;20032;-44
2023/12/12 00:48:26;;;;;;;16.52;7.93;;;4.40;99.90;;;;;;5083286;28;20032;-44
2023/12/12 00:50:51;;;;;;;12.77;7.32;;;4.40;99.90;;;;;;5082306;28;20477;-44
2023/12/12 00:53:17;;;;;;;20.13;8.52;;;4.40;99.90;;;;;;5084661;28;20079;-44
2023/12/12 00:55:43;;;;;;;17.33;7.68;;;4.50;99.90;;;;;;5086428;28;20067;-47
2023/12/12 00:58:08;;;;;;;18.15;7.72;;;4.40;99.90;;;;;;5090785;28;20066;-45
2023/12/12 01:00:34;;;;;;;18.40;8.05;;;4.50;99.90;;;;;;5084967;28;20068;-43
2023/12/12 01:03:00;;;;;;;20.60;8.07;;;4.60;99.90;;;;;;5085014;28;20521;-43
2023/12/12 01:05:26;;;;;;;16.63;7.63;;;4.70;99.90;;;;;;5086071;28;20131;-45
2023/12/12 01:07:51;;;;;;;17.50;7.53;;;4.60;99.90;;;;;;5081788;28;20119;-43
2023/12/12 01:10:17;;;;;;;18.70;7.53;;;4.70;99.90;;;;;;5083246;28;20116;-44
2023/12/12 01:12:43;;;;;;;23.27;8.27;;;4.80;99.90;;;;;;5084769;28;20041;-44
2023/12/12 01:15:09;;;;;;;20.77;7.97;;;4.90;99.90;;;;;;5068875;28;20089;-44
2023/12/12 01:17:34;;;;;;;17.95;7.65;;;4.90;99.90;;;;;;5081123;28;20667;-44
2023/12/12 01:20:00;;;;;;;14.43;7.75;;;5.00;99.90;;;;;;5082107;28;20040;-43
2023/12/12 01:22:25;;;;;;;20.10;9.02;;;5.00;99.90;;;;;;5084614;28;20059;-44
2023/12/12 01:24:51;;;;;;;16.13;8.48;;;5.00;99.90;;;;;;5086136;28;20048;-43
2023/12/12 01:27:17;;;;;;;13.88;8.82;;;5.00;99.90;;;;;;5080644;28;20044;-45
2023/12/12 01:29:43;;;;;;;24.73;8.45;;;5.00;99.90;;;;;;5087157;28;20040;-44
2023/12/12 01:32:09;;;;;;;17.15;8.90;;;5.00;99.90;;;;;;5086124;28;20048;-44
2023/12/12 01:34:34;;;;;;;20.80;8.73;;;5.10;99.90;;;;;;5081160;28;20052;-44
2023/12/12 01:37:00;;;;;;;19.90;8.57;;;5.00;99.90;;;;;;5082232;28;20400;-44
2023/12/12 01:39:26;;;;;;;19.80;8.73;;;5.10;99.90;;;;;;5082696;28;20040;-45
2023/12/12 01:41:51;;;;;;;16.73;8.57;;;5.10;99.90;;;;;;5081452;28;20067;-44
2023/12/12 01:44:17;;;;;;;17.42;9.63;;;5.20;99.90;;;;;;5080789;28;20047;-46
2023/12/12 01:46:48;;;;;;;15.48;8.18;;;5.30;99.90;;;;;;5062661;28;20636;-48
2023/12/12 01:49:16;;;;;;;14.93;8.18;;;5.20;99.90;;;;;;5082194;28;20113;-44
2023/12/12 01:51:43;;;;;;;;;;;5.30;99.90;;;;;;5083846;28;20418;-45
2023/12/12 01:54:08;;;;;;;17.13;8.15;;;5.20;99.90;;;;;;5082322;28;20443;-45
2023/12/12 01:56:35;;;;;;;19.73;8.52;;;5.20;99.90;;;;;;5087611;28;20040;-47
2023/12/12 01:59:02;;;;;;;19.38;8.85;;;5.10;99.90;;;;;;5080146;28;20040;-45
2023/12/12 02:01:28;;;;;;;20.13;8.55;;;5.00;99.90;;;;;;5090526;28;20036;-47
2023/12/12 02:03:56;;;;;;;19.20;8.60;;;5.00;99.90;;;;;;5069432;28;20043;-47
2023/12/12 02:06:25;;;;;;;18.67;8.57;;;5.00;99.90;;;;;;5088259;28;20524;-46
2023/12/12 02:08:51;;;;;;;16.90;8.77;;;5.00;99.90;;;;;;5091318;28;20118;-48
2023/12/12 02:11:18;;;;;;;16.73;9.18;;;5.10;99.90;;;;;;5091461;28;20040;-45
2023/12/12 02:13:44;;;;;;;21.80;8.98;;;5.00;99.90;;;;;;5088898;28;20086;-45
2023/12/12 02:16:10;;;;;;;23.13;9.05;;;5.00;99.90;;;;;;5089717;28;20086;-45
2023/12/12 02:18:36;;;;;;;23.85;9.20;;;5.10;99.90;;;;;;5089671;28;20401;-46
2023/12/12 02:21:02;;;;;;;23.95;8.80;;;5.10;99.90;;;;;;5087624;28;20036;-46
2023/12/12 02:23:29;;;;;;;19.75;8.32;;;5.10;99.90;;;;;;5087586;28;20133;-48
2023/12/12 02:25:55;;;;;;;19.27;9.45;;;5.10;99.90;;;;;;5091192;28;20397;-46
2023/12/12 02:28:21;;;;;;;17.52;8.90;;;5.20;99.90;;;;;;5087963;28;20059;-46
2023/12/12 02:30:47;;;;;;;21.13;9.38;;;5.20;99.90;;;;;;5084047;28;20077;-44
2023/12/12 02:33:12;;;;;;;22.13;9.02;;;5.10;99.90;;;;;;5086032;28;20052;-45
2023/12/12 02:35:38;;;;;;;26.15;9.48;;;5.10;99.90;;;;;;5091053;28;20054;-46
2023/12/12 02:38:04;;;;;;;22.00;9.20;;;5.20;99.90;;;;;;5071151;28;20120;-45
2023/12/12 02:40:29;;;;;;;22.13;10.00;;;5.20;99.90;;;;;;5091321;28;20036;-44
2023/12/12 02:42:55;;;;;;;18.90;9.07;;;5.00;99.90;;;;;;5087341;28;20485;-48
2023/12/12 02:45:20;;;;;;;19.73;9.40;;;5.10;99.90;;;;;;5087131;28;20052;-48
2023/12/12 02:47:46;;;;;;;19.45;9.07;;;5.00;99.90;;;;;;5087816;28;20084;-46
2023/12/12 02:50:12;;;;;;;21.42;10.30;;;5.10;99.90;;;;;;5088928;28;20119;-47
2023/12/12 02:52:38;;;;;;;20.85;9.70;;;5.00;99.90;;;;;;5068504;28;20123;-47
2023/12/12 02:55:03;;;;;;;23.42;9.73;;;5.10;99.90;;;;;;5088100;28;20109;-45
2023/12/12 02:57:29;;;;;;;19.98;9.40;;;5.10;99.90;;;;;;5090854;28;20115;-46
2023/12/12 02:59:55;;;;;;;28.73;10.95;;;5.10;99.90;;;;;;5089132;28;20047;-44
2023/12/12 03:02:20;;;;;;;22.55;10.80;;;5.00;99.90;;;;;;5087414;28;20409;-46
2023/12/12 03:04:46;;;;;;;25.15;10.50;;;5.00;99.90;;;;;;5086835;28;20174;-45
2023/12/12 03:07:12;;;;;;;30.60;10.30;;;5.10;99.90;;;;;;5086484;28;20108;-46
2023/12/12 03:09:38;;;;;;;21.50;11.68;;;5.10;99.90;;;;;;5085211;28;20043;-46
2023/12/12 03:12:04;;;;;;;28.70;12.63;;;5.10;99.90;;;;;;5088058;28;20131;-48
2023/12/12 03:14:30;;;;;;;23.70;12.13;;;5.10;99.90;;;;;;5086050;28;20043;-46
2023/12/12 03:16:56;;;;;;;28.45;13.23;;;5.00;99.90;;;;;;5088143;28;20381;-45
2023/12/12 03:19:22;;;;;;;27.55;13.40;;;5.00;99.90;;;;;;5088233;28;20048;-45
2023/12/12 03:21:49;;;;;;;34.28;14.10;;;5.10;99.90;;;;;;5088039;28;20059;-46
2023/12/12 03:24:15;;;;;;;28.75;13.75;;;4.90;99.90;;;;;;5087133;28;20446;-45
2023/12/12 03:26:40;;;;;;;29.40;14.27;;;4.90;99.90;;;;;;5087970;28;20112;-44
2023/12/12 03:29:06;;;;;;;35.00;14.05;;;5.00;99.90;;;;;;5089858;28;20052;-45
2023/12/12 03:31:32;;;;;;;29.70;14.82;;;5.00;99.90;;;;;;5086505;28;20060;-44
2023/12/12 03:33:57;;;;;;;35.58;14.75;;;4.90;99.90;;;;;;5082550;28;20047;-43
2023/12/12 03:36:23;;;;;;;33.25;14.88;;;5.00;99.90;;;;;;5082257;28;20701;-44
2023/12/12 03:38:49;;;;;;;31.70;14.25;;;5.00;99.90;;;;;;5081734;28;20142;-46
2023/12/12 03:41:15;;;;;;;33.90;15.50;;;4.90;99.90;;;;;;5069723;28;20043;-45
2023/12/12 03:43:40;;;;;;;40.85;15.95;;;5.00;99.90;;;;;;5085748;28;20052;-44
2023/12/12 03:46:11;;;;;;;44.55;16.55;;;5.10;99.90;;;;;;5085106;28;20051;-45
2023/12/12 03:48:36;;;;;;;46.85;15.80;;;5.00;99.90;;;;;;5089196;28;20131;-45
2023/12/12 03:51:02;;;;;;;40.83;16.40;;;5.00;99.90;;;;;;5084934;28;20040;-44
2023/12/12 03:53:28;;;;;;;38.70;15.80;;;4.90;99.90;;;;;;5086314;28;20029;-44
2023/12/12 03:55:53;;;;;;;37.03;14.95;;;5.10;99.90;;;;;;5087153;28;20230;-45
2023/12/12 03:58:19;;;;;;;37.00;14.93;;;4.90;99.90;;;;;;5082950;28;20438;-45
2023/12/12 04:00:45;;;;;;;37.80;16.10;;;5.00;99.90;;;;;;5085552;28;20728;-44
2023/12/12 04:03:10;;;;;;;38.55;15.48;;;5.10;99.90;;;;;;5082370;28;20035;-46
2023/12/12 04:05:36;;;;;;;38.53;14.85;;;5.10;99.90;;;;;;5082459;28;20401;-46
2023/12/12 04:08:01;;;;;;;38.60;14.98;;;5.20;99.90;;;;;;5063222;28;20051;-44
2023/12/12 04:10:27;;;;;;;37.55;14.63;;;5.00;99.90;;;;;;5090630;28;20146;-45
2023/12/12 04:12:53;;;;;;;40.20;16.02;;;5.20;99.90;;;;;;5088909;28;20048;-45
2023/12/12 04:15:18;;;;;;;39.78;15.40;;;5.10;99.90;;;;;;5089270;28;20047;-47
2023/12/12 04:17:44;;;;;;;32.00;14.98;;;5.10;99.90;;;;;;5086256;28;20445;-43
2023/12/12 04:20:10;;;;;;;35.92;15.88;;;5.00;99.90;;;;;;5081540;28;20040;-46
2023/12/12 04:22:36;;;;;;;40.45;16.33;;;5.10;99.90;;;;;;5087524;28;20085;-45
2023/12/12 04:25:01;;;;;;;43.05;16.60;;;5.10;99.90;;;;;;5085077;28;20493;-44
2023/12/12 04:27:27;;;;;;;38.65;17.10;;;5.10;99.90;;;;;;5088739;28;20032;-45
2023/12/12 04:29:52;;;;;;;46.97;17.40;;;5.10;99.90;;;;;;5086374;28;20039;-43
2023/12/12 04:32:18;;;;;;;38.35;16.23;;;5.10;99.90;;;;;;5086175;28;20048;-44
2023/12/12 04:34:45;;;;;;;45.65;16.88;;;5.00;99.90;;;;;;5083804;28;20044;-46
2023/12/12 04:37:11;;;;;;;41.38;17.13;;;5.10;99.90;;;;;;5082544;28;20342;-44
2023/12/12 04:39:37;;;;;;;43.20;17.17;;;5.10;99.90;;;;;;5081713;28;20043;-44
2023/12/12 04:42:04;;;;;;;46.17;17.00;;;5.20;99.90;;;;;;5087143;28;20112;-44
2023/12/12 04:44:30;;;;;;;39.87;16.87;;;5.40;99.90;;;;;;5085514;28;20044;-44
2023/12/12 04:46:55;;;;;;;46.97;17.80;;;5.50;99.90;;;;;;5083867;28;20065;-45
2023/12/12 04:49:21;;;;;;;52.80;18.48;;;5.50;99.90;;;;;;5083831;28;20156;-46
2023/12/12 04:51:47;;;;;;;48.08;18.48;;;5.50;99.90;;;;;;5088899;28;20040;-47
2023/12/12 04:54:12;;;;;;;48.92;18.20;;;5.70;99.90;;;;;;5065638;28;20447;-47
2023/12/12 04:56:38;;;;;;;50.42;19.90;;;5.60;99.90;;;;;;5084872;28;20052;-45
2023/12/12 04:59:03;;;;;;;52.67;18.88;;;5.70;99.90;;;;;;5085861;28;20032;-44
2023/12/12 05:01:30;;;;;;;50.30;20.27;;;5.70;99.90;;;;;;5082487;28;20051;-45
2023/12/12 05:03:55;;;;;;;52.38;19.48;;;5.70;99.90;;;;;;5082351;28;20493;-44
2023/12/12 05:06:21;;;;;;;49.70;19.48;;;5.70;99.90;;;;;;5089177;28;20050;-44
2023/12/12 05:08:46;;;;;;;57.60;20.15;;;5.90;99.90;;;;;;5084607;28;20519;-47
2023/12/12 05:11:13;;;;;;;51.92;21.42;;;5.80;99.90;;;;;;5086365;28;20032;-46
2023/12/12 05:13:39;;;;;;;47.53;20.38;;;5.80;99.90;;;;;;5083554;28;20067;-47
2023/12/12 05:16:07;;;;;;;52.25;20.40;;;5.90;99.90;;;;;;5084458;28;20399;-48
2023/12/12 05:18:33;;;;;;;59.95;20.67;;;5.90;99.90;;;;;;5083997;28;20122;-44
2023/12/12 05:20:59;;;;;;;59.10;19.75;;;5.90;99.90;;;;;;5081779;28;20185;-46
2023/12/12 05:23:26;;;;;;;58.10;21.63;;;5.80;99.90;;;;;;5081888;28;20565;-46
2023/12/12 05:25:51;;;;;;;64.22;22.25;;;6.00;99.90;;;;;;5083057;28;20044;-45
2023/12/12 05:28:17;;;;;;;63.25;23.95;;;6.10;99.90;;;;;;5082373;28;20048;-44
2023/12/12 05:30:44;;;;;;;64.63;23.88;;;6.10;99.90;;;;;;5086779;28;20114;-44
2023/12/12 05:33:09;;;;;;;70.00;24.33;;;6.00;99.90;;;;;;5080627;28;20111;-46
2023/12/12 05:35:35;;;;;;;65.05;24.65;;;6.00;99.90;;;;;;5084279;28;20134;-45
2023/12/12 05:38:03;;;;;;;80.00;25.95;;;6.10;99.90;;;;;;5091307;28;20071;-45
2023/12/12 05:40:29;;;;;;;74.10;26.23;;;6.10;99.90;;;;;;5092281;28;20040;-44
2023/12/12 05:42:56;;;;;;;78.50;26.52;;;6.10;99.90;;;;;;5089366;28;20059;-44
2023/12/12 05:45:22;;;;;;;80.80;27.08;;;6.20;99.90;;;;;;5083300;28;20074;-46
2023/12/12 05:47:48;;;;;;;70.72;25.98;;;6.30;99.90;;;;;;5086119;28;20462;-45
2023/12/12 05:50:13;;;;;;;65.90;26.33;;;6.20;99.90;;;;;;5085960;28;20040;-45
2023/12/12 05:52:39;;;;;;;75.15;28.33;;;6.20;99.90;;;;;;5085530;28;20047;-45
2023/12/12 05:55:05;;;;;;;76.32;28.67;;;6.20;99.90;;;;;;5087067;28;20068;-43
2023/12/12 05:57:33;;;;;;;73.05;30.58;;;6.30;99.90;;;;;;5087259;28;20048;-46
2023/12/12 06:00:01;;;;;;;82.55;30.20;;;6.40;99.90;;;;;;5085976;28;20036;-44
2023/12/12 06:02:26;;;;;;;82.40;32.28;;;6.20;99.90;;;;;;5086530;28;20052;-46
2023/12/12 06:04:52;;;;;;;90.60;33.50;;;6.30;99.90;;;;;;5085694;28;20742;-44
2023/12/12 06:07:18;;;;;;;90.65;32.88;;;6.30;99.90;;;;;;5085968;28;20489;-44
2023/12/12 06:09:44;;;;;;;85.72;33.33;;;6.50;99.90;;;;;;5088409;28;20051;-45
2023/12/12 06:12:09;;;;;;;85.00;35.50;;;6.40;99.90;;;;;;5085531;28;20367;-43
2023/12/12 06:14:35;;;;;;;88.95;35.72;;;6.50;99.90;;;;;;5084119;28;20129;-45
2023/12/12 06:17:02;;;;;;;83.10;36.05;;;6.60;99.90;;;;;;5065949;28;20070;-47
2023/12/12 06:19:28;;;;;;;95.17;35.70;;;6.50;99.90;;;;;;5082054;28;20613;-45
2023/12/12 06:21:54;;;;;;;84.47;35.58;;;6.40;99.90;;;;;;5082068;28;20297;-46
2023/12/12 06:24:20;;;;;;;86.15;35.75;;;6.50;99.90;;;;;;5080853;28;20099;-46
2023/12/12 06:26:46;;;;;;;82.00;35.85;;;6.40;99.90;;;;;;5080953;28;20102;-45
2023/12/12 06:29:13;;;;;;;80.35;35.53;;;6.40;99.90;;;;;;5081216;28;20048;-48
2023/12/12 06:31:39;;;;;;;77.90;35.25;;;6.30;99.90;;;;;;5081824;28;20440;-44
2023/12/12 06:34:05;;;;;;;81.25;34.42;;;6.40;99.90;;;;;;5081765;28;20697;-46
2023/12/12 06:36:31;;;;;;;68.22;33.75;;;6.30;99.90;;;;;;5081182;28;20440;-45
2023/12/12 06:38:56;;;;;;;72.93;34.38;;;6.40;99.90;;;;;;5063079;28;20043;-44
2023/12/12 06:41:22;;;;;;;75.57;35.35;;;6.30;99.90;;;;;;5080939;28;20514;-45
2023/12/12 06:43:48;;;;;;;82.55;34.88;;;6.30;99.90;;;;;;5082220;28;20042;-46
2023/12/12 06:46:18;;;;;;;71.97;34.08;;;6.30;99.90;;;;;;5080087;28;20135;-45
2023/12/12 06:48:43;;;;;;;79.03;33.65;;;6.20;99.90;;;;;;5083645;28;20043;-44
2023/12/12 06:51:09;;;;;;;77.68;32.25;;;6.00;99.90;;;;;;5080988;28;20083;-44
2023/12/12 06:53:35;;;;;;;67.03;33.42;;;6.10;99.90;;;;;;5081240;28;20042;-44
2023/12/12 06:56:01;;;;;;;79.05;34.45;;;6.00;99.90;;;;;;5084779;28;20046;-43
2023/12/12 06:58:27;;;;;;;64.28;32.45;;;5.80;99.90;;;;;;5083169;28;20040;-45
2023/12/12 07:00:52;;;;;;;62.95;34.78;;;5.90;99.90;;;;;;5081641;28;20469;-44
2023/12/12 07:03:24;;;;;;;64.90;31.80;;;5.70;99.90;;;;;;5081381;28;20054;-44
2023/12/12 07:05:52;;;;;;;63.47;33.65;;;5.70;99.90;;;;;;5084725;28;20046;-45
2023/12/12 07:08:19;;;;;;;66.28;34.63;;;5.70;99.90;;;;;;5081574;28;20086;-45
2023/12/12 07:10:45;;;;;;;59.28;34.28;;;5.60;99.90;;;;;;5082631;28;20068;-45
2023/12/12 07:13:11;;;;;;;63.65;34.95;;;5.70;99.90;;;;;;5085911;28;20040;-45
2023/12/12 07:15:37;;;;;;;79.50;36.78;;;5.70;99.90;;;;;;5066724;28;20397;-44
2023/12/12 07:18:07;;;;;;;68.43;35.92;;;5.70;99.90;;;;;;5081145;28;20504;-45
2023/12/12 07:20:33;;;;;;;70.05;36.17;;;5.60;99.90;;;;;;5085270;28;20036;-46
2023/12/12 07:22:59;;;;;;;66.03;35.60;;;5.60;99.90;;;;;;5082065;28;20039;-47
2023/12/12 07:25:24;;;;;;;72.30;38.10;;;5.60;99.90;;;;;;5069989;28;20448;-44
2023/12/12 07:27:50;;;;;;;65.47;37.75;;;5.50;99.90;;;;;;5089205;28;20101;-44
2023/12/12 07:30:16;;;;;;;69.32;38.47;;;5.70;99.90;;;;;;5082296;28;20032;-44
2023/12/12 07:32:41;;;;;;;69.78;37.65;;;5.50;99.90;;;;;;5082595;28;20085;-44
2023/12/12 07:35:07;;;;;;;70.38;38.72;;;5.50;99.90;;;;;;5087057;28;20035;-45
2023/12/12 07:37:34;;;;;;;65.22;37.88;;;5.50;99.90;;;;;;5068629;28;20062;-44
2023/12/12 07:39:59;;;;;;;66.40;38.00;;;5.40;99.90;;;;;;5068937;28;20109;-48
2023/12/12 07:42:25;;;;;;;71.50;37.08;;;5.40;99.90;;;;;;5087548;28;20032;-44
2023/12/12 07:44:51;;;;;;;68.18;35.78;;;5.30;99.90;;;;;;5086783;28;20073;-44
2023/12/12 07:47:17;;;;;;;77.78;37.95;;;5.30;99.90;;;;;;5089457;28;20047;-46
2023/12/12 07:49:42;;;;;;;73.50;38.50;;;5.20;99.90;;;;;;5087031;28;20063;-45
2023/12/12 07:52:08;;;;;;;68.85;36.72;;;5.30;99.90;;;;;;5083786;28;20123;-48
2023/12/12 07:54:33;;;;;;;84.07;39.83;;;5.20;99.90;;;;;;5082648;28;20086;-44
2023/12/12 07:56:59;;;;;;;72.53;38.13;;;5.20;99.90;;;;;;5088212;28;20040;-48
2023/12/12 07:59:25;;;;;;;66.30;36.33;;;5.20;99.90;;;;;;5085130;28;20493;-44
2023/12/12 08:01:50;;;;;;;86.43;40.58;;;5.20;99.90;;;;;;5082230;28;20032;-45
2023/12/12 08:04:16;;;;;;;83.15;40.58;;;5.10;99.90;;;;;;5086767;28;20498;-45
2023/12/12 08:06:41;;;;;;;87.70;40.25;;;5.30;99.90;;;;;;5085472;28;20097;-44
2023/12/12 08:09:08;;;;;;;94.75;43.15;;;5.10;99.90;;;;;;5086909;28;20083;-45
2023/12/12 08:11:33;;;;;;;88.63;42.00;;;5.20;99.90;;;;;;5081734;28;20418;-46
2023/12/12 08:14:00;;;;;;;82.63;40.75;;;5.30;99.90;;;;;;5082827;28;20048;-47
2023/12/12 08:16:25;;;;;;;93.45;43.78;;;5.30;99.90;;;;;;5083731;28;20452;-47
2023/12/12 08:18:51;;;;;;;115.05;47.97;;;5.30;99.90;;;;;;5086717;28;20040;-46
2023/12/12 08:21:17;;;;;;;169.45;50.47;;;5.40;99.90;;;;;;5087194;28;20036;-47
2023/12/12 08:23:43;;;;;;;266.88;56.30;;;5.30;99.90;;;;;;5068510;28;20648;-46
2023/12/12 08:26:12;;;;;;;333.52;56.70;;;5.40;99.90;;;;;;5085015;28;20040;-45
2023/12/12 08:28:38;;;;;;;349.85;54.22;;;5.40;99.90;;;;;;5085237;28;20101;-47
2023/12/12 08:31:05;;;;;;;425.73;62.20;;;5.50;99.90;;;;;;5083950;28;20086;-47
2023/12/12 08:33:31;;;;;;;466.23;58.40;;;5.50;99.90;;;;;;5082933;28;20052;-44
2023/12/12 08:35:57;;;;;;;446.77;56.97;;;5.40;99.90;;;;;;5083866;28;20040;-44
2023/12/12 08:38:23;;;;;;;507.27;61.15;;;5.40;99.90;;;;;;5070526;28;20496;-46
2023/12/12 08:40:49;;;;;;;432.98;55.00;;;5.50;99.90;;;;;;5064731;28;20107;-47
2023/12/12 08:43:14;;;;;;;429.80;57.45;;;5.60;99.90;;;;;;5080534;28;20040;-45
2023/12/12 08:45:40;;;;;;;397.80;55.10;;;5.60;99.90;;;;;;5066501;28;20492;-44
2023/12/12 08:48:07;;;;;;;419.40;55.92;;;5.40;99.90;;;;;;5085520;28;20063;-45
2023/12/12 08:50:33;;;;;;;476.90;63.22;;;5.50;99.90;;;;;;5086684;28;20052;-44
2023/12/12 08:52:58;;;;;;;421.85;58.63;;;5.50;99.90;;;;;;5066486;28;20671;-44
2023/12/12 08:55:24;;;;;;;451.52;58.20;;;5.60;99.90;;;;;;5089734;28;20420;-44
2023/12/12 08:57:49;;;;;;;524.47;65.50;;;5.60;99.90;;;;;;5083529;28;20139;-45
2023/12/12 09:00:15;;;;;;;405.55;56.42;;;5.60;99.90;;;;;;5082166;28;20048;-44
2023/12/12 09:02:41;;;;;;;361.95;53.72;;;5.50;99.90;;;;;;5088870;28;20355;-45
2023/12/12 09:05:07;;;;;;;336.63;53.40;;;5.60;99.90;;;;;;5085955;28;20046;-47
2023/12/12 09:07:34;;;;;;;326.10;51.03;;;5.60;99.90;;;;;;5089134;28;20131;-44
2023/12/12 09:10:01;;;;;;;364.30;53.63;;;5.70;99.90;;;;;;5069065;28;20044;-44
2023/12/12 09:12:27;;;;;;;352.92;51.83;;;5.50;99.90;;;;;;5082367;28;20039;-46
2023/12/12 09:14:52;;;;;;;421.63;56.45;;;5.70;99.90;;;;;;5085678;28;20032;-45
2023/12/12 09:17:18;;;;;;;441.75;58.40;;;5.70;99.90;;;;;;5084116;28;20036;-46
2023/12/12 09:19:44;;;;;;;386.67;54.67;;;5.80;99.90;;;;;;5088715;28;20040;-44
2023/12/12 09:22:09;;;;;;;389.73;54.55;;;5.70;99.90;;;;;;5085832;28;20092;-45
2023/12/12 09:24:35;;;;;;;398.35;52.42;;;5.80;99.90;;;;;;5087731;28;20516;-46
2023/12/12 09:27:01;;;;;;;462.85;55.38;;;5.60;99.90;;;;;;5088034;28;20040;-47
2023/12/12 09:29:26;;;;;;;307.63;48.47;;;5.80;99.90;;;;;;5084622;28;20043;-45
2023/12/12 09:31:52;;;;;;;337.77;48.35;;;5.70;99.90;;;;;;5088660;28;20540;-43
2023/12/12 09:34:17;;;;;;;307.70;46.42;;;5.70;99.90;;;;;;5088394;28;20044;-45
2023/12/12 09:36:43;;;;;;;317.00;46.95;;;5.70;99.90;;;;;;5088443;28;20154;-45
2023/12/12 09:39:10;;;;;;;351.13;52.40;;;5.90;99.90;;;;;;5087976;28;20036;-43
2023/12/12 09:41:36;;;;;;;316.85;50.55;;;5.90;99.90;;;;;;5089344;28;20123;-45
2023/12/12 09:44:02;;;;;;;300.88;48.22;;;5.90;99.90;;;;;;5088286;28;20154;-45
2023/12/12 09:46:29;;;;;;;301.95;48.17;;;6.00;99.90;;;;;;5088221;28;20162;-47
2023/12/12 09:48:56;;;;;;;228.43;43.20;;;;;;;;;;5085427;28;20102;-46
2023/12/12 09:51:24;;;;;;;186.68;38.20;;;6.10;99.90;;;;;;5086931;28;20051;-44
2023/12/12 09:53:50;;;;;;;203.23;39.72;;;5.90;99.90;;;;;;5088386;28;20145;-46
2023/12/12 09:56:17;;;;;;;277.40;44.55;;;6.00;99.90;;;;;;5087991;28;20040;-45
2023/12/12 09:58:46;;;;;;;193.63;38.17;;;6.00;99.90;;;;;;5088635;28;20063;-44
2023/12/12 10:01:12;;;;;;;200.02;37.95;;;6.10;99.90;;;;;;5087769;28;20048;-44
2023/12/12 10:03:38;;;;;;;329.83;49.63;;;6.10;99.90;;;;;;5053557;28;20058;-44
2023/12/12 10:06:08;;;;;;;185.43;38.47;;;6.20;99.90;;;;;;5089656;28;20047;-44
2023/12/12 10:08:37;;;;;;;243.57;43.92;;;6.20;99.90;;;;;;5089620;28;20040;-45
2023/12/12 10:11:06;;;;;;;173.55;38.92;;;6.20;99.90;;;;;;5086665;28;20063;-43
2023/12/12 10:13:54;;;;;;;151.00;38.38;;;6.20;99.90;;;;;;5088948;28;20448;-44
2023/12/12 10:16:20;;;;;;;124.00;35.60;;;6.20;99.90;;;;;;5086288;28;20036;-44
2023/12/12 10:18:46;;;;;;;166.48;39.15;;;6.30;99.90;;;;;;5088664;28;20548;-43
2023/12/12 10:21:22;;;;;;;167.90;40.17;;;6.30;99.90;;;;;;5089724;28;20044;-44
2023/12/12 10:23:49;;;;;;;184.20;40.33;;;;;;;;;;5062904;28;20039;-45
2023/12/12 10:26:23;;;;;;;159.75;39.72;;;6.30;99.90;;;;;;5094937;28;20051;-47
2023/12/12 10:28:49;;;;;;;243.18;44.60;;;6.40;99.90;;;;;;5094087;28;20080;-44
2023/12/12 10:31:14;;;;;;;295.20;49.35;;;6.40;99.90;;;;;;5094368;28;20409;-44
2023/12/12 10:33:40;;;;;;;219.70;44.67;;;6.50;99.90;;;;;;5092524;28;20055;-44
2023/12/12 10:36:10;;;;;;;160.70;41.45;;;6.50;99.90;;;;;;5074154;28;20444;-44
2023/12/12 10:38:38;;;;;;;190.77;44.08;;;6.60;99.90;;;;;;5074406;28;20094;-45
2023/12/12 10:41:14;;;;;;;178.05;42.50;;;6.50;99.90;;;;;;5093764;28;20558;-44
2023/12/12 10:43:42;;;;;;;135.45;40.15;;;6.50;99.90;;;;;;5093549;28;20048;-44
2023/12/12 10:46:15;;;;;;;166.43;40.95;;;6.40;99.90;;;;;;5093179;28;20444;-45
2023/12/12 10:48:48;;;;;;;120.97;39.00;;;6.50;99.90;;;;;;5094640;28;20147;-45
2023/12/12 10:51:18;;;;;;;140.23;40.47;;;6.60;99.90;;;;;;5093838;28;20044;-45
2023/12/12 10:53:51;;;;;;;178.88;42.42;;;6.60;99.90;;;;;;5091947;28;20055;-45
2023/12/12 10:56:17;;;;;;;110.50;36.63;;;6.60;99.90;;;;;;5093499;28;20478;-46
2023/12/12 10:58:44;;;;;;;92.25;36.97;;;6.60;99.90;;;;;;5092794;28;20051;-48
2023/12/12 11:01:12;;;;;;;90.55;36.08;;;6.90;99.90;;;;;;5093114;28;20603;-45
2023/12/12 11:03:38;;;;;;;89.82;34.53;;;6.90;99.90;;;;;;5092535;28;20394;-44
2023/12/12 11:06:05;;;;;;;92.22;34.67;;;6.90;99.90;;;;;;5092354;28;20047;-45
2023/12/12 11:08:32;;;;;;;114.25;35.53;;;6.90;99.90;;;;;;5090461;28;20032;-44
2023/12/12 11:11:25;;;;;;;74.88;30.02;;;7.00;99.90;;;;;;5093331;28;20064;-48
2023/12/12 11:13:52;;;;;;;77.95;32.47;;;7.00;99.90;;;;;;5087815;28;20464;-48
2023/12/12 11:16:18;;;;;;;78.53;30.27;;;7.10;99.90;;;;;;5091242;28;20148;-44
2023/12/12 11:18:45;;;;;;;86.85;31.05;;;7.10;99.90;;;;;;5093523;28;20427;-44
2023/12/12 11:21:43;;;;;;;63.80;28.70;;;7.20;99.90;;;;;;5094251;28;20409;-43
2023/12/12 11:24:09;;;;;;;58.28;25.38;;;7.20;99.90;;;;;;5074952;28;20142;-46
2023/12/12 11:26:38;;;;;;;60.80;25.15;;;7.10;99.90;;;;;;5057312;28;20048;-45
2023/12/12 11:29:06;;;;;;;69.18;28.33;;;7.00;99.90;;;;;;5078954;28;20093;-44
2023/12/12 11:31:35;;;;;;;63.08;26.95;;;7.00;99.90;;;;;;5066078;28;20122;-44
2023/12/12 11:34:05;;;;;;;61.35;27.70;;;7.00;99.90;;;;;;5093026;28;20059;-47
2023/12/12 11:37:00;;;;;;;66.40;29.13;;;7.10;99.90;;;;;;5093014;28;20032;-48
2023/12/12 11:39:46;;;;;;;77.75;33.05;;;7.10;99.90;;;;;;5093562;28;20442;-46
2023/12/12 11:42:18;;;;;;;94.10;33.72;;;7.00;99.90;;;;;;5086768;28;20049;-46
2023/12/12 11:44:47;;;;;;;79.88;31.60;;;7.00;99.90;;;;;;5090113;28;20102;-45
2023/12/12 11:47:25;;;;;;;104.50;34.65;;;7.10;99.90;;;;;;5093596;28;20040;-47
2023/12/12 11:50:11;;;;;;;78.15;32.50;;;7.00;99.90;;;;;;5092745;28;20083;-44
2023/12/12 11:52:39;;;;;;;86.53;31.75;;;7.10;99.90;;;;;;5088610;28;20117;-43
2023/12/12 11:55:06;;;;;;;85.20;31.20;;;7.10;99.90;;;;;;5092612;28;20722;-45
2023/12/12 11:57:32;;;;;;;72.83;31.00;;;7.00;99.90;;;;;;5093413;28;20070;-45
2023/12/12 12:00:03;;;;;;;76.22;30.90;;;7.10;99.90;;;;;;5090784;28;20482;-46
2023/12/12 12:02:29;;;;;;;64.25;30.20;;;7.10;99.90;;;;;;5080549;28;20130;-44
2023/12/12 12:04:55;;;;;;;65.68;29.85;;;7.10;99.90;;;;;;5092681;28;20105;-44
2023/12/12 12:07:21;;;;;;;74.70;31.25;;;7.20;99.90;;;;;;5091992;28;20365;-47
2023/12/12 12:09:47;;;;;;;67.22;29.85;;;7.30;99.90;;;;;;5093361;28;20123;-44
2023/12/12 12:12:13;;;;;;;76.03;32.47;;;7.20;99.90;;;;;;5092752;28;20473;-43
2023/12/12 12:14:39;;;;;;;67.97;29.63;;;7.30;99.90;;;;;;5092904;28;20481;-44
2023/12/12 12:17:05;;;;;;;76.03;32.55;;;7.30;99.90;;;;;;5092031;28;20050;-44
2023/12/12 12:19:32;;;;;;;73.57;32.65;;;7.30;99.90;;;;;;5092827;28;20500;-43
2023/12/12 12:22:06;;;;;;;77.93;33.50;;;7.30;99.90;;;;;;5092298;28;20044;-47
2023/12/12 12:24:33;;;;;;;71.80;34.10;;;7.30;99.90;;;;;;5072551;28;20469;-44
2023/12/12 12:26:59;;;;;;;72.18;33.42;;;7.30;99.90;;;;;;5072612;28;20051;-44
2023/12/12 12:29:25;;;;;;;78.68;34.42;;;7.40;99.90;;;;;;5072400;28;20041;-43
2023/12/12 12:31:52;;;;;;;74.47;34.22;;;7.30;99.90;;;;;;5071570;28;20070;-44
2023/12/12 12:34:22;;;;;;;88.20;35.10;;;7.40;99.90;;;;;;5076177;28;20068;-45
2023/12/12 12:36:53;;;;;;;75.75;34.35;;;7.30;99.90;;;;;;5084874;28;20051;-44